Terminal Aerodrome Forecast
Issued by NWS Sterling, VA

Home | Current Version | Previous Version | Text Only | Print | Product List | Glossary On
Versions: 1 2 3 4 5 6 7 8 9 10 11 12 13 14 15
000
FTUS41 KLWX 260500
TAFMRB
TAF
KMRB 260537Z 2606/2706 36005KT P6SM SCT150 OVC250
     FM260900 01006KT 2SM -RASN BKN060 OVC150
     FM261200 01006KT 1SM -SN SCT008 OVC025
     FM261500 01006KT 3/4SM -SN OVC008
     FM262100 32007KT P6SM OVC008
     FM270100 31005KT P6SM SCT008 OVC035=

USA.gov is the U.S. government's official web portal to all federal, state and local government web resources and services.